EDDC/DRS METAR and TAF weather

Enter ICAO airport designator
Station Type Date Time Source
EDDC METAR 2020/01/23 18:20 UTC NOAA

EDDC 231820Z 15006KT CAVOK M00/M03 Q1028 NOSIG


Station Type Date Time Source
EDDC Decoded METAR 2020/01/23 18:20 UTC NOAA

Dresden-Klotzsche, Germany (EDDC) 51-08N 013-45E 232M
Jan 23, 2020 - 01:20 PM EST / 2020.01.23 1820 UTC
Wind: from the SSE (150 degrees) at 7 MPH (6 KT):0
Visibility: greater than 7 mile(s):0
Temperature: 32 F (0 C)
Windchill: 24 F (-4 C):1
Dew Point: 26 F (-3 C)
Relative Humidity: 80%
Pressure (altimeter): 30.36 in. Hg (1028 hPa)
ob: EDDC 231820Z 15006KT CAVOK M00/M03 Q1028 NOSIG
cycle: 18

Station Type Date Time Source
EDDC TAF 2020/01/23 18:27 UTC NOAA

TAF EDDC 231700Z 2318/2418 17006KT CAVOK PROB30
TEMPO 2400/2408 4000 BR

Example: see airport list